Time;durP1;ratioP1;P1;durP2;ratioP2;P2;SDS_P1;SDS_P2;PMS_P1;PMS_P2;Temp;Humidity;BMP_temperature;BMP_pressure;BME280_temperature;BME280_humidity;BME280_pressure;Samples;Min_cycle;Max_cycle;Signal;HPM_P1;HPM_P2
2022/08/30 00:01:02;;;;;;;1999.90;999.90;;;13.30;99.90;;;;;;5041306;28;20654;-74
2022/08/30 00:03:33;;;;;;;1999.90;999.90;;;13.40;99.90;;;;;;5055339;28;20155;-74
2022/08/30 00:05:59;;;;;;;1999.90;999.90;;;13.40;99.90;;;;;;5069261;28;20040;-74
2022/08/30 00:08:25;;;;;;;1999.90;999.90;;;13.30;99.90;;;;;;5053151;28;20039;-74
2022/08/30 00:10:50;;;;;;;1999.90;999.90;;;13.30;99.90;;;;;;5048169;28;20048;-74
2022/08/30 00:13:17;;;;;;;1999.90;999.90;;;13.30;99.90;;;;;;5053972;28;20734;-74
2022/08/30 00:15:43;;;;;;;1999.90;999.90;;;13.30;99.90;;;;;;5057502;28;20044;-74
2022/08/30 00:18:09;;;;;;;1999.90;999.90;;;13.20;99.90;;;;;;5041121;28;20496;-74
2022/08/30 00:20:36;;;;;;;1999.90;999.90;;;13.10;99.90;;;;;;5054625;28;20083;-74
2022/08/30 00:23:03;;;;;;;1999.90;999.90;;;13.00;99.90;;;;;;5062427;28;20074;-74
2022/08/30 00:25:29;;;;;;;1999.90;999.90;;;13.00;99.90;;;;;;5038723;28;20481;-74
2022/08/30 00:27:55;;;;;;;1999.90;999.90;;;13.00;99.90;;;;;;5055665;28;20047;-74
2022/08/30 00:30:21;;;;;;;1999.90;999.90;;;13.00;99.90;;;;;;5055838;28;20708;-74
2022/08/30 00:32:47;;;;;;;1999.90;999.90;;;12.90;99.90;;;;;;5057060;28;20040;-74
2022/08/30 00:35:14;;;;;;;1999.90;999.90;;;12.80;99.90;;;;;;5056852;28;20044;-74
2022/08/30 00:37:40;;;;;;;1999.90;999.90;;;12.70;99.90;;;;;;5059257;28;20047;-74
2022/08/30 00:40:08;;;;;;;1999.90;999.90;;;12.70;99.90;;;;;;5073247;28;20037;-74
2022/08/30 00:42:34;;;;;;;1999.90;999.90;;;12.70;99.90;;;;;;5058374;28;20040;-74
2022/08/30 00:45:08;;;;;;;1999.90;999.90;;;12.60;99.90;;;;;;5041127;28;20515;-74
2022/08/30 00:47:34;;;;;;;1999.90;999.90;;;12.60;99.90;;;;;;5056725;28;20068;-74
2022/08/30 00:50:00;;;;;;;1999.90;999.90;;;12.60;99.90;;;;;;5057424;28;20039;-74
2022/08/30 00:52:26;;;;;;;1999.90;999.90;;;12.60;99.90;;;;;;5043821;28;20063;-74
2022/08/30 00:54:52;;;;;;;1999.90;999.90;;;12.60;99.90;;;;;;5057961;28;20104;-74
2022/08/30 00:57:18;;;;;;;1999.90;999.90;;;12.60;99.90;;;;;;5048917;28;20064;-74
2022/08/30 00:59:48;;;;;;;1999.90;999.90;;;12.60;99.90;;;;;;5044560;28;20071;-74
2022/08/30 01:02:16;;;;;;;1999.90;999.90;;;12.60;99.90;;;;;;5059954;28;20392;-74
2022/08/30 01:04:43;;;;;;;1999.90;999.90;;;12.60;99.90;;;;;;5061530;28;20121;-74
2022/08/30 01:07:09;;;;;;;1999.90;999.90;;;12.60;99.90;;;;;;5063494;28;20399;-74
2022/08/30 01:09:35;;;;;;;1999.90;999.90;;;12.60;99.90;;;;;;5069608;28;20160;-74
2022/08/30 01:12:03;;;;;;;1999.90;999.90;;;12.60;99.90;;;;;;5043607;28;20132;-75
2022/08/30 01:14:32;;;;;;;1999.90;999.90;;;12.60;99.90;;;;;;5058634;28;20040;-74
2022/08/30 01:17:00;;;;;;;1999.90;999.90;;;12.70;99.90;;;;;;5056717;28;20075;-74
2022/08/30 01:19:45;;;;;;;1999.90;999.90;;;12.70;99.90;;;;;;5048369;28;20098;-74
2022/08/30 01:22:29;;;;;;;1999.90;999.90;;;12.80;99.90;;;;;;5064996;28;20036;-74
2022/08/30 01:24:57;;;;;;;1999.90;999.90;;;12.80;99.90;;;;;;5059626;28;20044;-74
2022/08/30 01:27:24;;;;;;;1999.90;999.90;;;12.90;99.90;;;;;;5056271;28;20514;-74
2022/08/30 01:29:50;;;;;;;1999.90;999.90;;;12.90;99.90;;;;;;5056009;28;20040;-73
2022/08/30 01:32:22;;;;;;;1999.90;999.90;;;13.00;99.90;;;;;;5058218;28;20055;-74
2022/08/30 01:34:48;;;;;;;1999.90;999.90;;;13.00;99.90;;;;;;5056826;28;20043;-74
2022/08/30 01:37:23;;;;;;;1999.90;999.90;;;13.00;99.90;;;;;;5043788;28;20032;-74
2022/08/30 01:39:49;;;;;;;1999.90;999.90;;;13.00;99.90;;;;;;5043376;28;20075;-74
2022/08/30 01:42:16;;;;;;;1999.90;999.90;;;13.10;99.90;;;;;;5058168;28;20140;-74
2022/08/30 01:44:43;;;;;;;1999.90;999.90;;;13.10;99.90;;;;;;5056840;28;20122;-74
2022/08/30 01:47:10;;;;;;;1999.90;999.90;;;13.10;99.90;;;;;;5062234;28;20043;-74
2022/08/30 01:49:36;;;;;;;1999.90;999.90;;;13.10;99.90;;;;;;5063503;28;20028;-74
2022/08/30 01:52:02;;;;;;;1999.90;999.90;;;13.10;99.90;;;;;;5057201;28;20055;-74
2022/08/30 01:54:30;;;;;;;1999.90;999.90;;;13.10;99.90;;;;;;5048232;28;20040;-74
2022/08/30 01:56:55;;;;;;;1999.90;999.90;;;13.10;99.90;;;;;;5047025;28;20057;-74
2022/08/30 01:59:21;;;;;;;1999.90;999.90;;;13.10;99.90;;;;;;5041533;28;20048;-74
2022/08/30 02:01:46;;;;;;;1999.90;999.90;;;13.10;99.90;;;;;;5060822;28;20045;-73
2022/08/30 02:04:13;;;;;;;1999.90;999.90;;;13.10;99.90;;;;;;5072102;28;20535;-74
2022/08/30 02:06:40;;;;;;;1999.90;999.90;;;13.10;99.90;;;;;;5066606;28;20482;-74
2022/08/30 02:09:06;;;;;;;1999.90;999.90;;;13.10;99.90;;;;;;5054704;28;20036;-73
2022/08/30 02:11:32;;;;;;;1999.90;999.90;;;13.10;99.90;;;;;;5068179;28;20043;-73
2022/08/30 02:13:57;;;;;;;1999.90;999.90;;;13.10;99.90;;;;;;5054833;28;20040;-74
2022/08/30 02:16:24;;;;;;;1999.90;999.90;;;13.00;99.90;;;;;;5040368;28;20503;-74
2022/08/30 02:18:52;;;;;;;1999.90;999.90;;;13.00;99.90;;;;;;5068768;28;20040;-74
2022/08/30 02:21:18;;;;;;;1999.90;999.90;;;13.00;99.90;;;;;;5060721;28;20093;-74
2022/08/30 02:23:44;;;;;;;1999.90;999.90;;;13.00;99.90;;;;;;5055042;28;20399;-74
2022/08/30 02:26:12;;;;;;;1999.90;999.90;;;13.00;99.90;;;;;;5061597;28;20049;-73
2022/08/30 02:28:38;;;;;;;1999.90;999.90;;;12.90;99.90;;;;;;5069236;28;20055;-74
2022/08/30 02:31:04;;;;;;;1999.90;999.90;;;12.90;99.90;;;;;;5054333;28;20445;-74
2022/08/30 02:33:30;;;;;;;1999.90;999.90;;;12.90;99.90;;;;;;5061245;28;20211;-74
2022/08/30 02:35:56;;;;;;;1999.90;999.90;;;12.90;99.90;;;;;;5054295;28;20039;-73
2022/08/30 02:38:22;;;;;;;1999.90;999.90;;;12.90;99.90;;;;;;5052686;28;20514;-74
2022/08/30 02:40:48;;;;;;;1999.90;999.90;;;12.90;99.90;;;;;;5048573;28;20044;-73
2022/08/30 02:43:15;;;;;;;1999.90;999.90;;;12.90;99.90;;;;;;5052104;28;20040;-74
2022/08/30 02:45:41;;;;;;;1999.90;999.90;;;12.90;99.90;;;;;;5059477;28;20040;-73
2022/08/30 02:48:07;;;;;;;1999.90;999.90;;;12.80;99.90;;;;;;5047325;28;20431;-74
2022/08/30 02:50:33;;;;;;;1999.90;999.90;;;12.80;99.90;;;;;;5051225;28;20040;-73
2022/08/30 02:52:58;;;;;;;1999.90;999.90;;;12.80;99.90;;;;;;5071085;28;20085;-73
2022/08/30 03:02:10;;;;;;;1999.90;999.90;;;12.70;99.90;;;;;;5066989;28;20146;-73
2022/08/30 03:04:37;;;;;;;1999.90;999.90;;;12.70;99.90;;;;;;5060613;28;20051;-73
2022/08/30 03:07:04;;;;;;;1999.90;999.90;;;12.60;99.90;;;;;;5064743;28;20060;-73
2022/08/30 03:09:29;;;;;;;1999.90;999.90;;;12.60;99.90;;;;;;5052509;28;20054;-74
2022/08/30 03:11:55;;;;;;;1999.90;999.90;;;12.50;99.90;;;;;;5070204;28;20039;-74
2022/08/30 03:14:21;;;;;;;1999.90;999.90;;;12.50;99.90;;;;;;5057683;28;20131;-73
2022/08/30 03:16:47;;;;;;;1999.90;999.90;;;12.40;99.90;;;;;;5061892;28;20067;-73
2022/08/30 03:19:12;;;;;;;1999.90;999.90;;;12.40;99.90;;;;;;5062894;28;20071;-74
2022/08/30 03:21:38;;;;;;;1999.90;999.90;;;12.40;99.90;;;;;;5057264;28;20044;-74
2022/08/30 03:24:05;;;;;;;1999.90;999.90;;;12.40;99.90;;;;;;5061525;28;20036;-74
2022/08/30 03:26:31;;;;;;;1999.90;999.90;;;12.40;99.90;;;;;;5059045;28;20036;-73
2022/08/30 03:28:56;;;;;;;1999.90;999.90;;;12.40;99.90;;;;;;5058766;28;20628;-74
2022/08/30 03:31:22;;;;;;;1999.90;999.90;;;12.40;99.90;;;;;;5066182;28;20060;-73
2022/08/30 03:33:47;;;;;;;1999.90;999.90;;;12.30;99.90;;;;;;5054235;28;20063;-74
2022/08/30 03:36:13;;;;;;;1999.90;999.90;;;12.30;99.90;;;;;;5063498;28;20048;-74
2022/08/30 03:38:39;;;;;;;1999.90;999.90;;;12.30;99.90;;;;;;5070495;28;20239;-73
2022/08/30 03:41:05;;;;;;;1999.90;999.90;;;12.30;99.90;;;;;;5048920;28;20036;-74
2022/08/30 03:43:32;;;;;;;1999.90;999.90;;;12.30;99.90;;;;;;5063097;28;20563;-73
2022/08/30 03:45:59;;;;;;;1999.90;999.90;;;12.30;99.90;;;;;;5043981;28;20044;-73
2022/08/30 03:48:26;;;;;;;1999.90;999.90;;;12.20;99.90;;;;;;5056674;28;20384;-73
2022/08/30 03:50:52;;;;;;;1999.90;999.90;;;12.20;99.90;;;;;;5066639;28;20048;-73
2022/08/30 03:53:18;;;;;;;1999.90;999.90;;;12.20;99.90;;;;;;5060437;28;20047;-73
2022/08/30 03:55:44;;;;;;;1999.90;999.90;;;12.10;99.90;;;;;;5055509;28;20083;-73
2022/08/30 03:58:09;;;;;;;1999.90;999.90;;;12.10;99.90;;;;;;5056448;28;20451;-73
2022/08/30 04:00:35;;;;;;;1999.90;999.90;;;12.10;99.90;;;;;;5064136;28;20043;-73
2022/08/30 04:03:01;;;;;;;1999.90;999.90;;;12.00;99.90;;;;;;5044382;28;20039;-73
2022/08/30 04:05:27;;;;;;;1999.90;999.90;;;12.00;99.90;;;;;;5063002;28;20508;-73
2022/08/30 04:07:52;;;;;;;1999.90;999.90;;;12.00;99.90;;;;;;5065265;28;20035;-73
2022/08/30 04:10:20;;;;;;;1999.90;999.90;;;11.90;99.90;;;;;;5049284;28;20037;-73
2022/08/30 04:12:46;;;;;;;1999.90;999.90;;;11.90;99.90;;;;;;5062956;28;20048;-73
2022/08/30 04:15:13;;;;;;;1999.90;999.90;;;11.90;99.90;;;;;;5055022;28;20048;-73
2022/08/30 04:17:39;;;;;;;1999.90;999.90;;;11.90;99.90;;;;;;5072276;28;20093;-73
2022/08/30 04:20:05;;;;;;;1999.90;999.90;;;11.90;99.90;;;;;;5070397;28;20052;-73
2022/08/30 04:22:31;;;;;;;1999.90;999.90;;;11.80;99.90;;;;;;5063363;28;20400;-74
2022/08/30 04:24:56;;;;;;;1999.90;999.90;;;11.80;99.90;;;;;;5070123;28;20047;-74
2022/08/30 04:27:22;;;;;;;1999.90;999.90;;;11.80;99.90;;;;;;5039234;28;20508;-74
2022/08/30 04:29:48;;;;;;;1999.90;999.90;;;11.80;99.90;;;;;;5059181;28;20059;-72
2022/08/30 04:32:15;;;;;;;1999.90;999.90;;;11.80;99.90;;;;;;5064219;28;20052;-73
2022/08/30 04:34:41;;;;;;;1999.90;999.90;;;11.80;99.90;;;;;;5072124;28;20495;-73
2022/08/30 04:37:06;;;;;;;1999.90;999.90;;;11.70;99.90;;;;;;5061070;28;20080;-73
2022/08/30 04:39:32;;;;;;;1999.90;999.90;;;11.60;99.90;;;;;;5068783;28;20032;-73
2022/08/30 04:41:58;;;;;;;1999.90;999.90;;;11.60;99.90;;;;;;5042013;28;20041;-74
2022/08/30 04:44:26;;;;;;;1999.90;999.90;;;11.60;99.90;;;;;;5046946;28;20048;-73
2022/08/30 04:46:52;;;;;;;1999.90;999.90;;;11.60;99.90;;;;;;5050747;28;20048;-73
2022/08/30 04:49:17;;;;;;;1999.90;999.90;;;11.50;99.90;;;;;;5058921;28;20417;-73
2022/08/30 04:51:43;;;;;;;1999.90;999.90;;;11.50;99.90;;;;;;5043475;28;20092;-73
2022/08/30 04:54:09;;;;;;;1999.90;999.90;;;11.50;99.90;;;;;;5041514;28;20052;-73
2022/08/30 04:56:34;;;;;;;1999.90;999.90;;;11.40;99.90;;;;;;5062608;28;20040;-73
2022/08/30 04:59:00;;;;;;;1999.90;999.90;;;11.40;99.90;;;;;;5058764;28;20484;-73
2022/08/30 05:01:28;;;;;;;1999.90;999.90;;;11.40;99.90;;;;;;5044238;28;20455;-73
2022/08/30 05:03:55;;;;;;;1999.90;999.90;;;11.50;99.90;;;;;;5067768;28;20041;-73
2022/08/30 05:06:22;;;;;;;1999.90;999.90;;;11.50;99.90;;;;;;5059749;28;20040;-73
2022/08/30 05:08:47;;;;;;;1999.90;999.90;;;11.50;99.90;;;;;;5058762;28;20048;-73
2022/08/30 05:11:15;;;;;;;1999.90;999.90;;;11.50;99.90;;;;;;5040167;28;20047;-73
2022/08/30 05:13:41;;;;;;;1999.90;999.90;;;11.50;99.90;;;;;;5058873;28;20085;-72
2022/08/30 05:16:07;;;;;;;1999.90;999.90;;;11.50;99.90;;;;;;5045868;28;20043;-73
2022/08/30 05:18:34;;;;;;;1999.90;999.90;;;11.50;99.90;;;;;;5041851;28;20431;-72
2022/08/30 05:21:04;;;;;;;1999.90;999.90;;;11.50;99.90;;;;;;5046207;28;20089;-72
2022/08/30 05:23:30;;;;;;;1999.90;999.90;;;11.50;99.90;;;;;;5056842;28;20503;-73
2022/08/30 05:25:56;;;;;;;1999.90;999.90;;;11.50;99.90;;;;;;5061718;28;20040;-73
2022/08/30 05:28:21;;;;;;;1999.90;999.90;;;11.60;99.90;;;;;;5046936;28;20048;-72
2022/08/30 05:30:47;;;;;;;1999.90;999.90;;;11.60;99.90;;;;;;5060586;28;20056;-72
2022/08/30 05:33:13;;;;;;;1999.90;999.90;;;11.60;99.90;;;;;;5045135;28;20042;-72
2022/08/30 05:35:39;;;;;;;1999.90;999.90;;;11.60;99.90;;;;;;5048884;28;20110;-72
2022/08/30 05:38:05;;;;;;;1999.90;999.90;;;11.70;99.90;;;;;;5063814;28;20121;-72
2022/08/30 05:40:31;;;;;;;1999.90;999.90;;;11.80;99.90;;;;;;5047931;28;20134;-73
2022/08/30 05:42:56;;;;;;;1999.90;999.90;;;11.80;99.90;;;;;;5066783;28;20037;-72
2022/08/30 05:45:22;;;;;;;1999.90;999.90;;;11.90;99.90;;;;;;5059801;28;20048;-73
2022/08/30 05:47:47;;;;;;;1999.90;999.90;;;11.90;99.90;;;;;;5048891;28;20051;-72
2022/08/30 05:50:13;;;;;;;1999.90;999.90;;;12.00;99.90;;;;;;5086893;28;20043;-72
2022/08/30 05:52:41;;;;;;;1999.90;999.90;;;12.10;99.90;;;;;;5071619;28;20064;-72
2022/08/30 05:55:08;;;;;;;1999.90;999.90;;;12.20;99.90;;;;;;5053512;28;20048;-72
2022/08/30 05:57:36;;;;;;;1999.90;999.90;;;12.20;99.90;;;;;;5070925;28;20046;-72
2022/08/30 06:00:06;;;;;;;1999.90;999.90;;;12.30;99.90;;;;;;5070097;28;20036;-72
2022/08/30 06:02:32;;;;;;;1999.90;999.90;;;12.40;99.90;;;;;;5055114;28;20047;-72
2022/08/30 06:04:57;;;;;;;1999.90;999.90;;;12.50;99.90;;;;;;5061798;28;20040;-72
2022/08/30 06:07:23;;;;;;;1999.90;999.90;;;12.60;99.90;;;;;;5054793;28;20040;-72
2022/08/30 06:09:49;;;;;;;1999.90;999.90;;;12.70;99.90;;;;;;5067582;28;20081;-73
2022/08/30 06:12:14;;;;;;;1999.90;999.90;;;12.80;99.90;;;;;;5070416;28;20047;-73
2022/08/30 06:14:40;;;;;;;1999.90;999.90;;;12.90;99.90;;;;;;5071284;28;20032;-73
2022/08/30 06:17:06;;;;;;;1999.90;999.90;;;13.00;99.90;;;;;;5071301;28;20103;-73
2022/08/30 06:19:31;;;;;;;1999.90;999.90;;;13.10;99.90;;;;;;5051703;28;20050;-73
2022/08/30 06:21:57;;;;;;;1999.90;999.90;;;13.20;99.90;;;;;;5069953;28;20039;-73
2022/08/30 06:24:23;;;;;;;1999.90;999.90;;;13.30;99.90;;;;;;5054982;28;20032;-73
2022/08/30 06:26:48;;;;;;;1999.90;999.90;;;13.40;99.90;;;;;;5070967;28;20058;-72
2022/08/30 06:29:17;;;;;;;1999.90;999.90;;;13.50;99.90;;;;;;5067817;28;20036;-72
2022/08/30 06:31:43;;;;;;;1999.90;999.90;;;13.50;99.90;;;;;;5052603;28;20117;-73
2022/08/30 06:34:08;;;;;;;1999.90;999.90;;;13.70;99.90;;;;;;5067966;28;20048;-73
2022/08/30 06:36:35;;;;;;;1999.90;999.90;;;13.80;99.90;;;;;;5070742;28;20398;-73
2022/08/30 06:39:02;;;;;;;1999.90;999.90;;;14.00;99.90;;;;;;5069873;28;20048;-73
2022/08/30 06:41:29;;;;;;;1999.90;999.90;;;14.10;99.90;;;;;;5066673;28;20043;-73
2022/08/30 06:43:56;;;;;;;1999.90;999.90;;;14.20;99.90;;;;;;5068541;28;20036;-73
2022/08/30 06:46:25;;;;;;;1999.90;999.90;;;14.30;99.90;;;;;;5071272;28;20055;-73
2022/08/30 06:48:51;;;;;;;1999.90;999.90;;;14.50;99.90;;;;;;5051766;28;20051;-73
2022/08/30 06:51:21;;;;;;;1999.90;999.90;;;14.60;99.90;;;;;;5052559;28;20085;-73
2022/08/30 06:53:48;;;;;;;1999.90;999.90;;;14.70;99.90;;;;;;5060723;28;20585;-73
2022/08/30 06:56:14;;;;;;;1999.90;999.90;;;14.80;99.90;;;;;;5054350;28;20040;-73
2022/08/30 06:58:40;;;;;;;1999.90;999.90;;;14.90;99.90;;;;;;5070859;28;20448;-73
2022/08/30 07:01:10;;;;;;;1999.90;999.90;;;15.10;99.90;;;;;;5049324;28;20060;-73
2022/08/30 07:03:35;;;;;;;1999.90;999.90;;;15.20;99.90;;;;;;5050628;28;20040;-73
2022/08/30 07:06:01;;;;;;;1999.90;999.90;;;15.30;99.90;;;;;;5067935;28;20403;-73
2022/08/30 07:08:27;;;;;;;1999.90;999.90;;;15.40;99.90;;;;;;5070882;28;20499;-73
2022/08/30 07:10:53;;;;;;;1999.90;999.90;;;15.60;99.90;;;;;;5052145;28;20130;-73
2022/08/30 07:13:20;;;;;;;1999.90;999.90;;;15.70;99.90;;;;;;5068279;28;20438;-73
2022/08/30 07:15:47;;;;;;;1999.90;999.90;;;15.90;99.90;;;;;;5052792;28;20123;-73
2022/08/30 07:21:04;;;;;;;1999.90;999.90;;;16.20;99.90;;;;;;5063942;28;20496;-73
2022/08/30 07:23:29;;;;;;;1999.90;999.90;;;16.40;99.90;;;;;;5057288;28;20578;-73
2022/08/30 07:25:55;;;;;;;1999.90;999.90;;;16.50;99.90;;;;;;5070817;28;20036;-74
2022/08/30 07:28:21;;;;;;;1999.90;999.90;;;16.70;99.90;;;;;;5070598;28;20453;-73
2022/08/30 07:30:46;;;;;;;1999.90;999.90;;;16.80;99.90;;;;;;5066734;28;20098;-73
2022/08/30 07:33:12;;;;;;;1999.90;999.90;;;16.90;99.90;;;;;;5069394;28;20495;-73
2022/08/30 07:35:38;;;;;;;1999.90;999.90;;;16.90;99.90;;;;;;5053855;28;20036;-74
2022/08/30 07:38:03;;;;;;;1999.90;999.90;;;17.10;99.90;;;;;;5052511;28;20051;-73
2022/08/30 07:40:29;;;;;;;1999.90;999.90;;;17.20;99.90;;;;;;5056941;28;20055;-74
2022/08/30 07:42:55;;;;;;;1999.90;999.90;;;17.20;99.90;;;;;;5053705;28;20035;-74
2022/08/30 07:45:21;;;;;;;1999.90;999.90;;;17.30;99.90;;;;;;5068523;28;20056;-74
2022/08/30 07:47:46;;;;;;;1999.90;999.90;;;17.40;99.90;;;;;;5050960;28;20044;-74
2022/08/30 07:50:12;;;;;;;1999.90;999.90;;;17.40;99.90;;;;;;5059416;28;20502;-75
2022/08/30 07:52:38;;;;;;;1999.90;999.90;;;17.50;99.90;;;;;;5070917;28;20032;-75
2022/08/30 07:55:05;;;;;;;1999.90;999.90;;;17.60;99.90;;;;;;5074350;28;20388;-74
2022/08/30 07:57:33;;;;;;;1999.90;999.90;;;17.60;99.90;;;;;;5057555;28;20035;-74
2022/08/30 07:59:59;;;;;;;1999.90;999.90;;;17.70;99.90;;;;;;5064342;28;20052;-74
2022/08/30 08:02:25;;;;;;;1999.90;999.90;;;17.70;99.90;;;;;;5068172;28;20089;-74
2022/08/30 08:04:51;;;;;;;1999.90;999.90;;;17.80;99.90;;;;;;5072615;28;20055;-74
2022/08/30 08:07:16;;;;;;;1999.90;999.90;;;17.90;99.90;;;;;;5059436;28;20049;-74
2022/08/30 08:09:42;;;;;;;1999.90;999.90;;;17.90;99.90;;;;;;5056496;28;20032;-75
2022/08/30 08:12:08;;;;;;;1999.90;999.90;;;18.00;99.90;;;;;;5057055;28;20035;-74
2022/08/30 08:14:34;;;;;;;1999.90;999.90;;;18.10;99.90;;;;;;5071670;28;20032;-75
2022/08/30 08:17:00;;;;;;;1999.90;999.90;;;18.20;99.90;;;;;;5053658;28;20040;-75
2022/08/30 08:19:26;;;;;;;1999.90;999.90;;;18.40;99.90;;;;;;5073449;28;20040;-75
2022/08/30 08:21:55;;;;;;;1999.90;999.90;;;18.50;99.90;;;;;;5073553;28;20040;-75
2022/08/30 08:24:22;;;;;;;1999.90;999.90;;;18.50;99.90;;;;;;5045973;28;20040;-75
2022/08/30 08:26:47;;;;;;;1999.90;999.90;;;18.60;99.90;;;;;;5060005;28;20048;-76
2022/08/30 08:29:13;;;;;;;1999.90;999.90;;;18.70;99.90;;;;;;5056861;28;20051;-75
2022/08/30 08:31:40;;;;;;;1999.90;999.90;;;18.70;99.90;;;;;;5055134;28;20084;-75
2022/08/30 08:34:06;;;;;;;1999.90;999.90;;;18.70;99.90;;;;;;5054011;28;20046;-74
2022/08/30 08:36:33;;;;;;;1999.90;999.90;;;18.70;99.90;;;;;;5070590;28;20051;-75
2022/08/30 08:38:59;;;;;;;1999.90;999.90;;;18.80;99.90;;;;;;5056875;28;20109;-75
2022/08/30 08:41:37;;;;;;;1999.90;999.90;;;18.90;99.90;;;;;;5072290;28;20047;-75
2022/08/30 08:44:41;;;;;;;1999.90;999.90;;;19.00;99.90;;;;;;5051738;28;20093;-75
2022/08/30 08:47:24;;;;;;;1999.90;999.90;;;19.30;99.90;;;;;;5050902;28;20396;-75
2022/08/30 08:49:53;;;;;;;1999.90;999.90;;;19.50;99.90;;;;;;5045433;28;20043;-75
2022/08/30 08:55:17;;;;;;;1999.90;999.90;;;20.00;99.90;;;;;;5070442;28;20051;-75
2022/08/30 08:57:43;;;;;;;1999.90;999.90;;;20.70;99.90;;;;;;5086282;28;20047;-75
2022/08/30 09:00:12;;;;;;;1999.90;999.90;;;21.00;99.90;;;;;;5054444;28;20043;-76
2022/08/30 09:02:50;;;;;;;1999.90;999.90;;;21.80;99.90;;;;;;5056270;28;20429;-76
2022/08/30 09:05:23;;;;;;;1999.90;999.90;;;22.20;97.90;;;;;;5053678;28;20449;-75
2022/08/30 09:07:56;;;;;;;1999.90;999.90;;;22.20;97.30;;;;;;5055587;28;20079;-75
2022/08/30 09:10:23;;;;;;;1999.90;999.90;;;22.10;96.30;;;;;;5073188;28;20116;-75
2022/08/30 09:12:48;;;;;;;1999.90;999.90;;;22.00;96.10;;;;;;5063982;28;20040;-76
2022/08/30 09:15:29;;;;;;;1999.90;999.90;;;21.80;97.80;;;;;;5071682;28;20048;-76
2022/08/30 09:17:58;;;;;;;1999.90;999.90;;;22.20;96.80;;;;;;5053886;28;20367;-76
2022/08/30 09:20:42;;;;;;;1999.90;999.90;;;22.80;95.20;;;;;;5071784;28;20051;-75
2022/08/30 09:23:26;;;;;;;1999.90;999.90;;;22.80;92.90;;;;;;5061655;28;20135;-76
2022/08/30 09:25:59;;;;;;;1999.90;999.90;;;22.50;93.00;;;;;;5071642;28;20058;-76
2022/08/30 09:28:31;;;;;;;1999.90;999.90;;;22.70;92.10;;;;;;5064124;28;20051;-74
2022/08/30 09:31:19;;;;;;;1999.90;999.90;;;22.80;92.20;;;;;;5044532;28;20520;-75
2022/08/30 09:34:07;;;;;;;1999.90;999.90;;;23.10;91.70;;;;;;5059903;28;20044;-76
2022/08/30 09:36:49;;;;;;;1999.90;999.90;;;22.90;89.80;;;;;;5067159;28;20051;-75
2022/08/30 09:39:18;;;;;;;1999.90;999.90;;;23.00;92.40;;;;;;5071222;28;20123;-75
2022/08/30 09:41:48;;;;;;;1999.90;999.90;;;23.50;91.20;;;;;;5070434;28;20395;-75
2022/08/30 09:44:17;;;;;;;1999.90;999.90;;;23.40;91.30;;;;;;5055632;28;20067;-75
2022/08/30 09:47:00;;;;;;;1999.90;999.90;;;23.60;91.00;;;;;;5086178;28;20044;-75
2022/08/30 09:49:41;;;;;;;1999.90;999.90;;;23.90;88.60;;;;;;5070049;28;20054;-76
2022/08/30 09:52:32;;;;;;;1999.90;999.90;;;24.00;90.40;;;;;;5066891;28;20044;-75
2022/08/30 09:55:13;;;;;;;1999.90;999.90;;;24.30;90.50;;;;;;5071773;28;20051;-76
2022/08/30 09:57:59;;;;;;;1999.90;999.90;;;24.40;84.90;;;;;;5063754;28;20051;-76
2022/08/30 10:00:30;;;;;;;1999.90;999.90;;;24.30;82.40;;;;;;5051545;28;20050;-76
2022/08/30 10:03:10;;;;;;;1999.90;999.90;;;23.40;81.90;;;;;;5055564;28;20119;-76
2022/08/30 10:05:56;;;;;;;1999.90;999.90;;;22.80;84.50;;;;;;5048068;28;20044;-76
2022/08/30 10:08:52;;;;;;;1999.90;999.90;;;22.80;85.20;;;;;;5062808;28;20036;-76
2022/08/30 10:11:26;;;;;;;1999.90;999.90;;;23.00;82.00;;;;;;5052650;28;20040;-76
2022/08/30 10:14:24;;;;;;;1999.90;999.90;;;23.30;81.70;;;;;;5071781;28;20165;-76
2022/08/30 10:16:52;;;;;;;1999.90;999.90;;;22.90;76.40;;;;;;5056127;28;20040;-76
2022/08/30 10:19:40;;;;;;;1999.90;999.90;;;22.20;79.20;;;;;;5048215;28;20040;-76
2022/08/30 10:22:32;;;;;;;1999.90;999.90;;;22.00;82.00;;;;;;5069348;28;20082;-75
2022/08/30 10:25:14;;;;;;;1999.90;999.90;;;22.20;84.20;;;;;;5063471;28;20055;-76
2022/08/30 10:27:55;;;;;;;1999.90;999.90;;;22.60;81.10;;;;;;5054575;28;20487;-76
2022/08/30 10:30:22;;;;;;;1999.90;999.90;;;22.70;79.80;;;;;;5067873;28;20056;-75
2022/08/30 10:32:57;;;;;;;1999.90;999.90;;;22.90;80.40;;;;;;5070280;28;20099;-75
2022/08/30 10:35:27;;;;;;;1999.90;999.90;;;23.10;77.30;;;;;;5038382;28;20080;-75
2022/08/30 10:38:03;;;;;;;1999.90;999.90;;;23.10;78.50;;;;;;5061235;28;20048;-75
2022/08/30 10:43:44;;;;;;;1999.90;999.90;;;23.10;77.60;;;;;;5069824;28;20039;-75
2022/08/30 10:46:33;;;;;;;1999.90;999.90;;;23.20;78.90;;;;;;5071168;28;20054;-76
2022/08/30 10:49:07;;;;;;;1999.90;999.90;;;23.40;78.00;;;;;;5053252;28;20737;-75
2022/08/30 10:52:11;;;;;;;1999.90;999.90;;;23.70;78.30;;;;;;5044052;28;20080;-75
2022/08/30 10:54:51;;;;;;;1999.90;999.90;;;23.80;75.70;;;;;;5095802;28;20494;-75
2022/08/30 10:57:18;;;;;;;1999.90;999.90;;;23.70;75.90;;;;;;5054513;28;20074;-76
2022/08/30 11:00:14;;;;;;;1999.90;999.90;;;23.70;76.40;;;;;;5070614;28;20051;-75
2022/08/30 11:03:08;;;;;;;1999.90;999.90;;;23.90;75.20;;;;;;5065505;28;20059;-76
2022/08/30 11:05:59;;;;;;;1999.90;999.90;;;24.00;72.60;;;;;;5070892;28;20370;-75
2022/08/30 11:08:57;;;;;;;1999.90;999.90;;;24.00;74.10;;;;;;5045494;28;20040;-75
2022/08/30 11:11:47;;;;;;;1999.90;999.90;;;24.10;73.60;;;;;;5067828;28;20047;-76
2022/08/30 11:14:17;;;;;;;1999.90;999.90;;;24.20;73.80;;;;;;5070776;28;20044;-76
2022/08/30 11:16:46;;;;;;;1999.90;999.90;;;24.10;73.50;;;;;;5053350;28;20080;-75
2022/08/30 11:19:18;;;;;;;1999.90;999.90;;;23.90;71.70;;;;;;5066590;28;20047;-75
2022/08/30 11:21:45;;;;;;;1999.90;999.90;;;23.70;75.10;;;;;;5052520;28;20101;-76
2022/08/30 11:24:22;;;;;;;1999.90;999.90;;;23.80;74.00;;;;;;5051518;28;20070;-76
2022/08/30 11:26:48;;;;;;;1999.90;999.90;;;23.60;72.40;;;;;;5069370;28;20440;-75
2022/08/30 11:29:28;;;;;;;1999.90;999.90;;;23.20;73.20;;;;;;5070127;28;20044;-75
2022/08/30 11:31:56;;;;;;;1999.90;999.90;;;23.20;74.40;;;;;;5038641;28;20518;-75
2022/08/30 11:34:58;;;;;;;1999.90;999.90;;;23.30;72.00;;;;;;5069438;28;20047;-75
2022/08/30 11:37:42;;;;;;;1999.90;999.90;;;23.20;73.00;;;;;;4989627;28;20450;-75
2022/08/30 11:40:30;;;;;;;1999.90;999.90;;;23.40;75.10;;;;;;5004778;28;20054;-75
2022/08/30 11:42:56;;;;;;;1999.90;999.90;;;23.80;74.30;;;;;;4999277;28;20514;-75
2022/08/30 11:45:24;;;;;;;1999.90;999.90;;;24.00;74.20;;;;;;4973341;28;20154;-75
2022/08/30 11:48:09;;;;;;;1999.90;999.90;;;24.20;74.30;;;;;;4988830;28;20046;-75
2022/08/30 11:50:59;;;;;;;1999.90;999.90;;;24.60;72.60;;;;;;4973052;28;20044;-75
2022/08/30 11:53:32;;;;;;;1999.90;999.90;;;24.90;74.10;;;;;;4965375;28;20132;-75
2022/08/30 11:56:13;;;;;;;1999.90;999.90;;;25.10;69.50;;;;;;4989526;28;20048;-75
2022/08/30 11:58:59;;;;;;;1999.90;999.90;;;24.90;70.70;;;;;;4969309;28;20553;-76
2022/08/30 12:01:25;;;;;;;1999.90;999.90;;;24.60;69.20;;;;;;4977334;28;20073;-75
2022/08/30 12:04:18;;;;;;;1999.90;999.90;;;24.50;70.00;;;;;;4986615;28;20461;-75
2022/08/30 12:06:55;;;;;;;1999.90;999.90;;;24.40;69.00;;;;;;4983405;28;20054;-75
2022/08/30 12:09:24;;;;;;;1999.90;999.90;;;24.30;69.00;;;;;;4973726;28;20045;-75
2022/08/30 12:12:03;;;;;;;1999.90;999.90;;;24.20;71.20;;;;;;5039109;28;20137;-75
2022/08/30 12:14:40;;;;;;;1999.90;999.90;;;24.50;71.00;;;;;;5067741;28;20495;-75
2022/08/30 12:20:27;;;;;;;1999.90;999.90;;;24.70;66.40;;;;;;5068622;28;20044;-75
2022/08/30 12:22:54;;;;;;;1999.90;999.90;;;24.70;67.00;;;;;;5049016;28;20123;-75
2022/08/30 12:25:27;;;;;;;1999.90;999.90;;;24.50;66.70;;;;;;5066729;28;20047;-75
2022/08/30 12:28:15;;;;;;;1999.90;999.90;;;24.40;66.20;;;;;;5067673;28;20031;-75
2022/08/30 12:30:42;;;;;;;1999.90;999.90;;;24.30;67.50;;;;;;5065691;28;20100;-75